Terminal Aerodrome Forecast
Issued by NWS

Home | Current Version | Previous Version | Text Only | Print | Product List | Glossary On
Versions: 1 2 3 4 5 6 7 8 9 10 11 12 13 14 15 16 17
127
FTUS46 KSEW 132320
TAFOLM
TAF
KOLM 132320Z 1400/1424 VRB06KT P6SM SKC
     FM140900 00000KT 1/4SM FZFG VV001
     FM142000 06003KT 5SM BR SCT002
     FM142100 09004KT P6SM SCT250=

USA.gov is the U.S. government's official web portal to all federal, state and local government web resources and services.